createdAt,value
2018-08-20T00:02:16.826Z,68.35
2018-08-20T00:05:22.461Z,68.79
2018-08-20T00:08:27.410Z,67.82
2018-08-20T00:11:32.353Z,69.05
2018-08-20T00:14:37.434Z,68.16
2018-08-20T00:17:42.352Z,69.32
2018-08-20T00:20:47.484Z,68.77
2018-08-20T00:23:52.399Z,69.01
2018-08-20T00:26:59.236Z,69.18
2018-08-20T00:30:05.588Z,69.08
2018-08-20T00:33:10.741Z,68.92
2018-08-20T00:36:15.648Z,69.43
2018-08-20T00:39:20.580Z,69.72
2018-08-20T00:42:25.492Z,70.20
2018-08-20T00:45:30.422Z,69.66
2018-08-20T00:48:35.377Z,70.49
2018-08-20T00:51:40.321Z,71.14
2018-08-20T00:54:45.293Z,71.00
2018-08-20T00:57:50.212Z,70.93
2018-08-20T01:00:55.099Z,70.99
2018-08-20T01:04:00.703Z,70.25
2018-08-20T01:07:05.647Z,71.05
2018-08-20T01:10:10.565Z,70.60
2018-08-20T01:13:15.460Z,71.00
2018-08-20T01:16:20.365Z,71.13
2018-08-20T01:19:25.264Z,71.31
2018-08-20T01:22:30.156Z,69.96
2018-08-20T01:25:35.039Z,70.34
2018-08-20T01:28:39.969Z,70.64
2018-08-20T01:31:44.865Z,71.38
2018-08-20T01:34:49.760Z,71.23
2018-08-20T01:37:54.792Z,72.14
2018-08-20T01:40:59.672Z,71.16
2018-08-20T01:44:04.577Z,71.93
2018-08-20T01:47:09.465Z,71.76
2018-08-20T01:50:14.384Z,71.15
2018-08-20T01:53:19.288Z,71.99
2018-08-20T01:56:24.181Z,72.35
2018-08-20T01:59:29.228Z,71.36
2018-08-20T02:02:34.166Z,71.39
2018-08-20T02:05:39.081Z,71.17
2018-08-20T02:08:44.013Z,71.80
2018-08-20T02:11:48.901Z,71.53
2018-08-20T02:14:53.785Z,71.74
2018-08-20T02:17:58.720Z,71.72
2018-08-20T02:21:03.651Z,71.92
2018-08-20T02:24:08.570Z,72.46
2018-08-20T02:27:13.457Z,72.51
2018-08-20T02:30:18.348Z,72.35
2018-08-20T02:33:23.277Z,72.24
2018-08-20T02:36:28.165Z,72.03
2018-08-20T02:39:33.045Z,72.22
2018-08-20T02:42:37.989Z,73.41
2018-08-20T02:45:42.891Z,72.83
2018-08-20T02:48:47.792Z,72.47
2018-08-20T02:51:52.713Z,73.93
2018-08-20T02:54:57.636Z,73.83
2018-08-20T02:58:02.560Z,73.61
2018-08-20T03:01:07.493Z,74.01
2018-08-20T03:04:12.449Z,73.65
2018-08-20T03:07:17.361Z,73.77
2018-08-20T03:10:22.288Z,73.35
2018-08-20T03:13:27.212Z,73.44
2018-08-20T03:16:32.456Z,74.20
2018-08-20T03:19:37.328Z,74.56
2018-08-20T03:22:42.283Z,74.76
2018-08-20T03:25:47.236Z,74.05
2018-08-20T03:28:52.188Z,74.98
2018-08-20T03:31:57.116Z,75.09
2018-08-20T03:35:02.049Z,74.35
2018-08-20T03:38:07.019Z,74.56
2018-08-20T03:41:11.984Z,75.50
2018-08-20T03:44:16.920Z,74.46
2018-08-20T03:47:21.872Z,74.90
2018-08-20T03:50:26.800Z,75.52
2018-08-20T03:53:31.784Z,74.84
2018-08-20T03:56:36.745Z,75.54
2018-08-20T03:59:41.654Z,74.60
2018-08-20T04:02:46.541Z,74.45
2018-08-20T04:05:51.457Z,75.10
2018-08-20T04:08:56.350Z,74.87
2018-08-20T04:12:02.155Z,74.11
2018-08-20T04:15:07.054Z,74.34
2018-08-20T04:18:11.957Z,75.00
2018-08-20T04:21:16.849Z,75.55
2018-08-20T04:24:21.779Z,75.78
2018-08-20T04:27:26.669Z,75.30
2018-08-20T04:30:31.620Z,75.04
2018-08-20T04:33:36.478Z,75.43
2018-08-20T04:36:41.528Z,76.27
2018-08-20T04:40:03.775Z,75.93
2018-08-20T04:43:09.118Z,76.41
2018-08-20T04:46:14.057Z,76.28
2018-08-20T04:49:18.954Z,75.45
2018-08-20T04:52:23.842Z,77.14
2018-08-20T04:55:28.733Z,75.80
2018-08-20T04:58:33.667Z,76.01
2018-08-20T05:01:38.557Z,76.54
2018-08-20T05:04:43.446Z,75.81
2018-08-20T05:07:48.342Z,76.37
2018-08-20T05:10:53.240Z,75.72
2018-08-20T05:13:58.127Z,75.37
2018-08-20T05:17:03.081Z,75.28
2018-08-20T05:20:08.661Z,75.07
2018-08-20T05:23:13.559Z,76.12
2018-08-20T05:26:19.153Z,76.00
2018-08-20T05:29:24.042Z,76.13
2018-08-20T05:32:29.056Z,75.32
2018-08-20T05:35:34.022Z,74.54
2018-08-20T05:38:38.937Z,72.64
2018-08-20T05:41:43.885Z,73.16
2018-08-20T05:44:49.018Z,72.23
2018-08-20T05:47:53.832Z,72.23
2018-08-20T05:50:58.836Z,72.23
2018-08-20T05:54:03.989Z,72.75
2018-08-20T05:57:09.064Z,71.76
2018-08-20T06:00:15.957Z,70.98
2018-08-20T06:03:20.952Z,69.40
2018-08-20T06:06:25.912Z,69.97
2018-08-20T06:09:30.895Z,68.76
2018-08-20T06:12:36.372Z,68.76
2018-08-20T06:15:41.384Z,68.54
2018-08-20T06:18:46.368Z,67.60
2018-08-20T06:21:51.374Z,67.64
2018-08-20T06:24:56.371Z,66.25
2018-08-20T06:28:01.349Z,66.17
2018-08-20T06:31:06.349Z,66.25
2018-08-20T06:34:11.377Z,65.65
2018-08-20T06:37:16.337Z,64.00
2018-08-20T06:40:21.339Z,63.34
2018-08-20T06:43:26.337Z,62.97
2018-08-20T06:46:31.381Z,62.86
2018-08-20T06:49:36.410Z,62.38
2018-08-20T06:52:42.923Z,61.04
2018-08-20T06:55:47.921Z,59.28
2018-08-20T06:58:53.193Z,56.75
2018-08-20T07:01:58.230Z,56.88
2018-08-20T07:05:16.781Z,57.33
2018-08-20T07:08:21.874Z,56.57
2018-08-20T07:11:27.051Z,57.91
2018-08-20T07:14:32.126Z,57.02
2018-08-20T07:17:37.472Z,55.60
2018-08-20T07:20:42.461Z,56.38
2018-08-20T07:23:47.466Z,58.14
2018-08-20T07:26:52.456Z,57.63
2018-08-20T07:29:57.409Z,55.37
2018-08-20T07:33:02.528Z,53.18
2018-08-20T07:36:07.441Z,51.20
2018-08-20T07:39:12.392Z,52.16
2018-08-20T07:42:18.215Z,50.95
2018-08-20T07:45:23.136Z,50.00
2018-08-20T07:48:28.117Z,50.15
2018-08-20T07:51:33.096Z,49.34
2018-08-20T07:54:38.876Z,50.71
2018-08-20T07:57:43.852Z,48.31
2018-08-20T08:00:48.817Z,47.82
2018-08-20T08:03:53.777Z,48.93
2018-08-20T08:06:58.766Z,48.91
2018-08-20T08:10:05.601Z,49.55
2018-08-20T08:13:10.576Z,48.69
2018-08-20T08:16:15.534Z,49.65
2018-08-20T08:19:20.512Z,49.94
2018-08-20T08:22:25.473Z,51.64
2018-08-20T08:25:30.465Z,51.14
2018-08-20T08:28:35.493Z,50.75
2018-08-20T08:31:40.522Z,51.16
2018-08-20T08:34:45.521Z,51.04
2018-08-20T08:37:50.484Z,51.10
2018-08-20T08:40:55.538Z,50.01
2018-08-20T08:44:00.501Z,51.24
2018-08-20T08:47:05.684Z,51.85
2018-08-20T08:50:11.005Z,50.57
2018-08-20T08:53:16.071Z,51.19
2018-08-20T08:56:21.058Z,52.05
2018-08-20T08:59:26.248Z,51.39
2018-08-20T09:02:31.262Z,51.00
2018-08-20T09:05:36.196Z,49.88
2018-08-20T09:08:41.161Z,50.37
2018-08-20T09:11:46.100Z,50.36
2018-08-20T09:14:51.024Z,49.79
2018-08-20T09:17:56.049Z,51.29
2018-08-20T09:21:00.974Z,50.26
2018-08-20T09:24:05.977Z,49.03
2018-08-20T09:27:11.017Z,49.73
2018-08-20T09:30:18.900Z,49.47
2018-08-20T09:33:23.797Z,47.48
2018-08-20T09:36:28.709Z,47.18
2018-08-20T09:39:33.761Z,47.10
2018-08-20T09:42:39.497Z,46.88
2018-08-20T09:45:44.429Z,43.80
2018-08-20T09:48:49.468Z,43.47
2018-08-20T09:51:54.368Z,43.58
2018-08-20T09:54:59.623Z,40.93
2018-08-20T09:58:04.609Z,41.91
2018-08-20T10:01:09.585Z,41.71
2018-08-20T10:04:14.774Z,43.40
2018-08-20T10:07:19.746Z,42.41
2018-08-20T10:10:24.660Z,43.47
2018-08-20T10:13:29.581Z,42.41
2018-08-20T10:16:49.753Z,41.63
2018-08-20T10:19:54.708Z,41.00
2018-08-20T10:22:59.686Z,39.23
2018-08-20T10:26:05.258Z,40.09
2018-08-20T10:29:10.254Z,41.01
2018-08-20T10:32:15.161Z,43.09
2018-08-20T10:35:20.137Z,42.41
2018-08-20T10:38:25.178Z,41.68
2018-08-20T10:41:30.091Z,39.76
2018-08-20T10:44:40.653Z,41.92
2018-08-20T10:47:47.012Z,41.81
2018-08-20T10:50:51.940Z,39.58
2018-08-20T10:53:56.892Z,41.72
2018-08-20T10:57:02.137Z,42.45
2018-08-20T11:00:07.553Z,42.62
2018-08-20T11:03:12.554Z,42.67
2018-08-20T11:06:17.536Z,43.34
2018-08-20T11:09:22.522Z,43.17
2018-08-20T11:12:27.669Z,43.36
2018-08-20T11:15:32.665Z,43.90
2018-08-20T11:18:37.632Z,42.46
2018-08-20T11:21:42.633Z,41.44
2018-08-20T11:24:47.657Z,41.27
2018-08-20T11:27:52.633Z,42.12
2018-08-20T11:30:57.598Z,41.07
2018-08-20T11:34:02.638Z,40.17
2018-08-20T11:37:07.645Z,40.65
2018-08-20T11:40:12.668Z,40.84
2018-08-20T11:43:17.696Z,39.29
2018-08-20T11:46:22.669Z,38.75
2018-08-20T11:49:27.644Z,38.10
2018-08-20T11:52:32.585Z,36.99
2018-08-20T11:55:51.376Z,36.01
2018-08-20T11:58:57.137Z,37.80
2018-08-20T12:02:02.247Z,36.57
2018-08-20T12:05:08.099Z,38.71
2018-08-20T12:08:13.065Z,38.49
2018-08-20T12:11:18.024Z,37.96
2018-08-20T12:14:23.224Z,38.21
2018-08-20T12:17:28.201Z,39.01
2018-08-20T12:20:33.149Z,38.30
2018-08-20T12:23:38.197Z,37.90
2018-08-20T12:26:43.168Z,37.62
2018-08-20T12:29:48.156Z,36.87
2018-08-20T12:32:53.128Z,37.10
2018-08-20T12:35:58.117Z,37.32
2018-08-20T12:39:04.190Z,36.85
2018-08-20T12:42:09.162Z,35.96
2018-08-20T12:45:14.130Z,36.37
2018-08-20T12:48:19.073Z,37.10
2018-08-20T12:52:12.314Z,38.29
2018-08-20T12:55:17.314Z,39.76
2018-08-20T12:58:22.384Z,40.08
2018-08-20T13:01:27.365Z,39.28
2018-08-20T13:04:32.366Z,40.85
2018-08-20T13:07:37.355Z,41.84
2018-08-20T13:10:42.316Z,40.12
2018-08-20T13:13:47.278Z,40.01
2018-08-20T13:16:52.243Z,37.68
2018-08-20T13:19:57.208Z,37.70
2018-08-20T13:23:02.165Z,37.54
2018-08-20T13:26:07.165Z,38.63
2018-08-20T13:29:12.133Z,38.53
2018-08-20T13:32:17.151Z,36.74
2018-08-20T13:35:22.115Z,38.80
2018-08-20T13:38:27.109Z,38.01
2018-08-20T13:41:32.056Z,37.61
2018-08-20T13:44:37.381Z,38.13
2018-08-20T13:47:42.325Z,38.10
2018-08-20T13:50:47.316Z,38.21
2018-08-20T13:53:52.272Z,36.13
2018-08-20T13:56:57.250Z,38.46
2018-08-20T14:00:02.261Z,37.64
2018-08-20T14:03:07.267Z,38.38
2018-08-20T14:06:12.222Z,39.02
2018-08-20T14:09:17.150Z,39.03
2018-08-20T14:12:22.132Z,38.86
2018-08-20T14:15:27.094Z,39.18
2018-08-20T14:18:32.058Z,40.86
2018-08-20T14:22:26.336Z,40.71
2018-08-20T14:25:31.553Z,41.56
2018-08-20T14:28:36.517Z,40.35
2018-08-20T14:31:41.478Z,39.79
2018-08-20T14:34:46.470Z,39.67
2018-08-20T14:37:51.465Z,39.98
2018-08-20T14:40:56.424Z,39.65
2018-08-20T14:44:01.365Z,39.63
2018-08-20T14:47:06.346Z,40.68
2018-08-20T14:50:13.388Z,41.92
2018-08-20T14:53:18.361Z,41.38
2018-08-20T14:56:23.317Z,41.58
2018-08-20T14:59:28.310Z,41.38
2018-08-20T15:02:33.318Z,41.50
2018-08-20T15:05:38.340Z,40.77
2018-08-20T15:08:43.293Z,42.71
2018-08-20T15:11:48.298Z,41.19
2018-08-20T15:14:53.268Z,41.55
2018-08-20T15:17:58.240Z,40.13
2018-08-20T15:21:03.656Z,41.63
2018-08-20T15:24:08.604Z,40.83
2018-08-20T15:27:13.602Z,40.96
2018-08-20T15:30:18.568Z,39.76
2018-08-20T15:33:23.581Z,41.82
2018-08-20T15:36:28.553Z,41.50
2018-08-20T15:39:33.707Z,41.09
2018-08-20T15:42:38.625Z,41.53
2018-08-20T15:45:43.621Z,40.19
2018-08-20T15:48:49.078Z,40.94
2018-08-20T15:51:54.048Z,40.55
2018-08-20T15:54:59.021Z,40.74
2018-08-20T15:58:04.348Z,40.83
2018-08-20T16:01:09.442Z,40.57
2018-08-20T16:04:14.746Z,41.19
2018-08-20T16:07:19.901Z,41.56
2018-08-20T16:10:24.841Z,40.36
2018-08-20T16:13:29.835Z,40.31
2018-08-20T16:16:34.816Z,41.45
2018-08-20T16:19:40.289Z,40.49
2018-08-20T16:22:45.269Z,40.63
2018-08-20T16:25:50.289Z,41.46
2018-08-20T16:28:55.290Z,41.40
2018-08-20T16:32:00.369Z,40.56
2018-08-20T16:35:07.396Z,42.42
2018-08-20T16:38:12.425Z,41.66
2018-08-20T16:41:17.379Z,41.54
2018-08-20T16:44:22.546Z,41.57
2018-08-20T16:47:27.674Z,42.00
2018-08-20T16:50:32.696Z,41.90
2018-08-20T16:53:37.857Z,40.62
2018-08-20T16:56:43.983Z,42.02
2018-08-20T16:59:48.981Z,40.91
2018-08-20T17:02:53.953Z,41.06
2018-08-20T17:05:58.905Z,41.40
2018-08-20T17:09:04.577Z,41.85
2018-08-20T17:12:09.616Z,41.38
2018-08-20T17:15:16.210Z,41.58
2018-08-20T17:18:21.249Z,41.89
2018-08-20T17:21:26.216Z,42.43
2018-08-20T17:24:36.904Z,42.40
2018-08-20T17:27:43.988Z,43.15
2018-08-20T17:30:52.494Z,42.71
2018-08-20T17:33:57.485Z,43.25
2018-08-20T17:37:02.841Z,44.14
2018-08-20T17:40:09.231Z,44.24
2018-08-20T17:43:15.489Z,43.46
2018-08-20T17:46:20.453Z,43.98
2018-08-20T17:49:28.847Z,45.00
2018-08-20T17:52:39.241Z,45.20
2018-08-20T17:55:44.226Z,44.79
2018-08-20T17:58:51.380Z,45.29
2018-08-20T18:01:56.337Z,45.80
2018-08-20T18:05:01.303Z,45.69
2018-08-20T18:08:06.300Z,47.26
2018-08-20T18:11:11.320Z,46.26
2018-08-20T18:14:17.239Z,47.11
2018-08-20T18:17:22.206Z,47.15
2018-08-20T18:20:28.789Z,47.68
2018-08-20T18:23:34.645Z,48.80
2018-08-20T18:26:45.188Z,49.31
2018-08-20T18:29:50.177Z,50.15
2018-08-20T18:32:55.146Z,50.26
2018-08-20T18:36:04.757Z,50.46
2018-08-20T18:39:11.768Z,52.44
2018-08-20T18:42:16.956Z,53.03
2018-08-20T18:45:21.936Z,52.71
2018-08-20T18:48:33.265Z,51.85
2018-08-20T18:51:38.244Z,52.23
2018-08-20T18:54:46.888Z,52.74
2018-08-20T18:57:51.854Z,53.80
2018-08-20T19:00:56.829Z,53.12
2018-08-20T19:04:01.769Z,54.75
2018-08-20T19:07:08.166Z,54.95
2018-08-20T19:10:19.315Z,56.71
2018-08-20T19:13:24.241Z,57.05
2018-08-20T19:16:30.683Z,56.13
2018-08-20T19:19:40.320Z,57.04
2018-08-20T19:22:45.243Z,56.38
2018-08-20T19:25:50.182Z,56.61
2018-08-20T19:28:55.134Z,56.79
2018-08-20T19:32:00.069Z,58.08
2018-08-20T19:35:04.989Z,57.59
2018-08-20T19:38:09.908Z,58.57
2018-08-20T19:41:15.049Z,58.12
2018-08-20T19:44:19.949Z,58.06
2018-08-20T19:47:24.861Z,58.59
2018-08-20T19:50:29.796Z,59.13
2018-08-20T19:53:34.733Z,58.82
2018-08-20T19:56:39.648Z,59.15
2018-08-20T19:59:44.596Z,60.24
2018-08-20T20:02:49.565Z,60.08
2018-08-20T20:05:54.563Z,60.20
2018-08-20T20:09:06.693Z,60.44
2018-08-20T20:12:11.667Z,61.75
2018-08-20T20:15:16.619Z,61.68
2018-08-20T20:18:21.553Z,61.84
2018-08-20T20:21:26.521Z,62.57
2018-08-20T20:24:31.705Z,62.97
2018-08-20T20:27:36.678Z,63.50
2018-08-20T20:30:41.644Z,63.52
2018-08-20T20:33:46.605Z,63.20
2018-08-20T20:36:51.561Z,63.57
2018-08-20T20:39:59.563Z,62.14
2018-08-20T20:43:04.538Z,63.45
2018-08-20T20:46:09.861Z,62.72
2018-08-20T20:49:14.833Z,62.61
2018-08-20T20:52:19.834Z,62.74
2018-08-20T20:55:24.788Z,62.64
2018-08-20T20:58:32.777Z,63.86
2018-08-20T21:01:37.819Z,62.80
2018-08-20T21:04:42.622Z,63.21
2018-08-20T21:07:48.562Z,64.15
2018-08-20T21:10:53.493Z,63.63
2018-08-20T21:13:58.723Z,63.17
2018-08-20T21:17:03.656Z,62.84
2018-08-20T21:20:08.600Z,63.80
2018-08-20T21:23:13.524Z,63.35
2018-08-20T21:26:18.456Z,64.43
2018-08-20T21:29:24.844Z,64.53
2018-08-20T21:32:30.018Z,64.20
2018-08-20T21:35:34.924Z,63.76
2018-08-20T21:38:43.892Z,64.72
2018-08-20T21:41:49.124Z,64.82
2018-08-20T21:44:54.069Z,65.05
2018-08-20T21:47:59.045Z,65.72
2018-08-20T21:52:12.557Z,66.04
2018-08-20T21:55:17.454Z,65.87
2018-08-20T22:02:32.007Z,67.42
2018-08-20T22:05:36.941Z,67.15
2018-08-20T22:08:41.917Z,65.98
2018-08-20T22:11:46.899Z,66.44
2018-08-20T22:14:51.868Z,67.24
2018-08-20T22:17:57.137Z,66.67
2018-08-20T22:21:02.401Z,66.38
2018-08-20T22:24:07.387Z,67.56
2018-08-20T22:27:12.345Z,67.79
2018-08-20T22:30:17.348Z,67.24
2018-08-20T22:33:22.473Z,67.87
2018-08-20T22:36:28.749Z,67.80
2018-08-20T22:39:33.743Z,68.01
2018-08-20T22:42:46.081Z,67.62
2018-08-20T22:45:51.040Z,68.52
2018-08-20T22:48:58.133Z,68.57
2018-08-20T22:52:03.700Z,68.35
2018-08-20T22:55:08.916Z,69.15
2018-08-20T22:58:13.889Z,68.22
2018-08-20T23:01:19.076Z,68.76
2018-08-20T23:04:24.558Z,69.16
2018-08-20T23:07:29.797Z,68.84
2018-08-20T23:10:37.693Z,68.31
2018-08-20T23:13:42.656Z,69.38
2018-08-20T23:16:48.564Z,68.58
2018-08-20T23:19:53.749Z,69.43
2018-08-20T23:22:58.978Z,68.53
2018-08-20T23:26:07.677Z,68.88
2018-08-20T23:29:12.670Z,69.64
2018-08-20T23:32:17.593Z,69.84
2018-08-20T23:35:22.917Z,68.67
2018-08-20T23:38:28.748Z,69.49
2018-08-20T23:41:33.693Z,68.69
2018-08-20T23:44:38.653Z,69.32
2018-08-20T23:47:43.589Z,69.14
2018-08-20T23:50:58.680Z,68.53
2018-08-20T23:54:03.776Z,69.81
2018-08-20T23:57:08.737Z,69.97
